Sherwood, Oregon
Current Conditions -  °F | °C
As of 2:53 AM on Friday 31 Oct 2014 (Local Time) from KUAO Reporting Station
Overcast Overcast  
Wind Chill: 55°   Ceiling: 4800
Heat Index: 55°   Visibility: 10mi
Dew Point: 55°   Wind: 0mph
Humidity: 100%   Direction: NA
Pressure: 29.71"   Gusts: NA
Location:  45.36°N, 122.84°W
Report Text: KUAO 310953Z AUTO 00000KT 10SM BKN048 OVC065 13/13 A2971 RMK AO2 RAE28B44E53 SLP060 P0001 T01280128
Loading
Personal Weather Stations






























Interactive Weather Map
Tropical Storm Tracking
New forecast layout! Learn more

10-Day Weather Forecast

Advertisements
Track Severe Weather on mobile